Time;durP1;ratioP1;P1;durP2;ratioP2;P2;SDS_P1;SDS_P2;PMS_P1;PMS_P2;Temp;Humidity;BMP_temperature;BMP_pressure;BME280_temperature;BME280_humidity;BME280_pressure;Samples;Min_cycle;Max_cycle;Signal;HPM_P1;HPM_P2
2021/12/17 00:01:00;;;;;;;14.50;9.90;;;4.10;99.90;;;;;;5089107;28;20551;-72
2021/12/17 00:03:37;;;;;;;13.73;8.87;;;4.20;99.90;;;;;;5089003;28;20456;-72
2021/12/17 00:06:14;;;;;;;16.23;10.37;;;4.20;99.90;;;;;;5089216;28;20470;-73
2021/12/17 00:08:44;;;;;;;16.03;9.97;;;4.30;99.90;;;;;;5089240;28;20473;-72
2021/12/17 00:11:11;;;;;;;13.93;9.10;;;4.20;99.90;;;;;;5088958;28;20529;-71
2021/12/17 00:13:44;;;;;;;11.07;8.57;;;4.10;99.90;;;;;;5089143;28;20488;-73
2021/12/17 00:16:19;;;;;;;15.57;10.57;;;4.10;99.90;;;;;;5089261;28;20455;-74
2021/12/17 00:44:16;;;;;;;14.00;10.40;;;4.20;99.90;;;;;;5092598;28;20438;-71
2021/12/17 00:49:36;;;;;;;13.50;9.07;;;4.40;99.90;;;;;;5092277;28;20965;-71
2021/12/17 00:52:04;;;;;;;11.23;8.30;;;4.40;99.90;;;;;;5092380;28;21367;-72
2021/12/17 00:54:37;;;;;;;12.17;7.70;;;4.30;99.90;;;;;;5092474;28;20835;-73
2021/12/17 00:57:11;;;;;;;11.80;8.30;;;4.30;99.90;;;;;;5092487;28;20538;-74
2021/12/17 00:59:39;;;;;;;9.60;6.60;;;4.30;99.90;;;;;;5091428;28;20474;-71
2021/12/17 01:02:11;;;;;;;12.73;8.00;;;4.40;99.90;;;;;;5092029;28;20935;-72
2021/12/17 01:04:42;;;;;;;10.23;7.50;;;4.40;99.90;;;;;;5092285;28;20512;-73
2021/12/17 01:07:11;;;;;;;11.47;6.67;;;4.40;99.90;;;;;;5092168;28;20517;-72
2021/12/17 01:09:38;;;;;;;13.47;8.23;;;4.50;99.90;;;;;;5091716;28;20476;-73
2021/12/17 01:12:07;;;;;;;10.73;6.90;;;4.50;99.90;;;;;;5091540;28;20495;-72
2021/12/17 01:14:35;;;;;;;10.30;7.77;;;4.60;99.90;;;;;;5091434;28;20557;-74
2021/12/17 01:17:03;;;;;;;10.07;7.07;;;4.50;99.90;;;;;;5091868;28;20933;-72
2021/12/17 01:19:56;;;;;;;9.80;6.80;;;4.40;99.90;;;;;;5091679;28;20475;-74
2021/12/17 01:22:45;;;;;;;11.20;6.83;;;4.50;99.90;;;;;;5091191;28;20874;-75
2021/12/17 01:25:18;;;;;;;9.03;6.10;;;4.50;99.90;;;;;;5091706;28;20999;-71
2021/12/17 01:36:01;;;;;;;10.17;5.80;;;4.70;99.90;;;;;;5091993;28;20457;-74
2021/12/17 01:44:04;;;;;;;10.10;6.03;;;4.90;99.90;;;;;;5091580;28;20966;-71
2021/12/17 01:46:34;;;;;;;10.27;7.93;;;5.00;99.90;;;;;;5091401;28;20474;-74
2021/12/17 01:49:18;;;;;;;7.03;5.33;;;4.90;99.90;;;;;;5091677;28;20468;-71
2021/12/17 02:00:09;;;;;;;9.70;5.53;;;4.80;99.90;;;;;;5066820;28;20555;-73
2021/12/17 02:02:42;;;;;;;6.40;3.97;;;4.80;99.90;;;;;;5090984;28;20452;-73
2021/12/17 02:05:11;;;;;;;8.27;5.30;;;4.90;99.90;;;;;;5091069;28;20849;-74
2021/12/17 02:07:40;;;;;;;7.93;4.73;;;4.90;99.90;;;;;;5091231;28;20447;-72
2021/12/17 02:19:25;;;;;;;8.53;5.30;;;4.90;99.90;;;;;;5051085;28;20650;-73
2021/12/17 02:29:57;;;;;;;6.80;4.53;;;4.80;99.90;;;;;;5090516;28;20460;-72
2021/12/17 02:32:26;;;;;;;8.33;5.30;;;4.80;99.90;;;;;;5090605;28;20488;-71
2021/12/17 02:37:36;;;;;;;11.73;5.50;;;4.70;99.90;;;;;;5093019;27;20443;-71
2021/12/17 02:40:17;;;;;;;9.27;5.83;;;4.80;99.90;;;;;;5090397;28;20482;-72
2021/12/17 02:45:37;;;;;;;7.60;5.13;;;4.90;99.90;;;;;;5064856;28;20471;-71
2021/12/17 02:48:07;;;;;;;7.73;4.60;;;5.00;99.90;;;;;;5090025;28;20455;-71
2021/12/17 02:50:36;;;;;;;10.40;5.10;;;4.90;99.90;;;;;;5089955;28;20450;-71
2021/12/17 02:53:07;;;;;;;7.73;4.57;;;5.10;99.90;;;;;;5090149;28;20506;-70
2021/12/17 02:55:36;;;;;;;8.17;5.47;;;5.00;99.90;;;;;;5090270;28;20504;-73
2021/12/17 02:58:04;;;;;;;9.40;5.90;;;5.10;99.90;;;;;;5089531;28;20493;-73
2021/12/17 03:00:33;;;;;;;7.77;5.10;;;5.10;99.90;;;;;;5089633;28;20451;-73
2021/12/17 03:03:02;;;;;;;9.73;5.70;;;5.20;99.90;;;;;;5090022;28;20505;-74
2021/12/17 03:05:30;;;;;;;9.47;6.03;;;5.20;99.90;;;;;;5089872;28;20493;-73
2021/12/17 03:07:58;;;;;;;8.97;5.27;;;5.20;99.90;;;;;;5089835;28;20993;-73
2021/12/17 03:10:27;;;;;;;7.90;5.23;;;5.20;99.90;;;;;;5090108;28;20527;-71
2021/12/17 03:12:58;;;;;;;11.07;5.83;;;5.20;99.90;;;;;;5089735;28;20499;-71
2021/12/17 03:15:34;;;;;;;7.87;4.97;;;5.30;99.90;;;;;;5089840;28;20453;-74
2021/12/17 03:23:40;;;;;;;9.60;5.37;;;5.40;99.90;;;;;;5089611;28;20561;-71
2021/12/17 03:26:11;;;;;;;11.53;6.27;;;5.60;99.90;;;;;;5089850;28;20480;-72
2021/12/17 03:28:39;;;;;;;9.23;6.03;;;5.30;99.90;;;;;;5089694;28;20709;-72
2021/12/17 03:31:08;;;;;;;11.00;8.07;;;5.30;99.90;;;;;;5089681;28;20448;-71
2021/12/17 03:33:35;;;;;;;11.50;7.60;;;5.20;99.90;;;;;;5089632;28;20505;-74
2021/12/17 03:36:03;;;;;;;13.70;8.70;;;5.10;99.90;;;;;;5089122;28;20456;-71
2021/12/17 03:38:30;;;;;;;10.70;7.27;;;4.90;99.90;;;;;;5089311;28;20472;-72
2021/12/17 03:41:12;;;;;;;11.30;8.53;;;4.80;99.90;;;;;;5089726;28;20462;-74
2021/12/17 03:43:41;;;;;;;10.23;7.37;;;4.90;99.90;;;;;;5089660;28;20455;-73
2021/12/17 03:46:09;;;;;;;12.53;8.93;;;4.90;99.90;;;;;;5089602;28;20454;-72
2021/12/17 03:48:38;;;;;;;12.67;8.17;;;4.90;99.90;;;;;;5089295;28;20479;-73
2021/12/17 03:51:11;;;;;;;11.63;7.97;;;5.00;99.90;;;;;;5089499;28;20456;-74
2021/12/17 03:53:38;;;;;;;13.70;8.30;;;5.00;99.90;;;;;;5091846;28;20531;-71
2021/12/17 03:56:06;;;;;;;12.63;7.70;;;5.10;99.90;;;;;;5093649;28;20497;-73
2021/12/17 03:58:33;;;;;;;8.20;5.87;;;5.20;99.90;;;;;;5092910;28;20553;-74
2021/12/17 04:01:02;;;;;;;8.43;6.87;;;5.20;99.90;;;;;;5093040;28;20451;-70
2021/12/17 04:03:29;;;;;;;10.53;7.07;;;5.10;99.90;;;;;;5093338;28;20451;-71
2021/12/17 04:05:56;;;;;;;10.27;6.67;;;5.00;99.90;;;;;;5093373;28;20451;-72
2021/12/17 04:08:23;;;;;;;9.90;6.33;;;5.00;99.90;;;;;;5093345;28;20483;-71
2021/12/17 04:10:53;;;;;;;8.17;5.50;;;4.90;99.90;;;;;;5093396;28;20451;-74
2021/12/17 04:13:30;;;;;;;11.07;6.87;;;5.00;99.90;;;;;;5092763;28;20514;-73
2021/12/17 04:16:00;;;;;;;11.67;7.20;;;4.90;99.90;;;;;;5093787;28;20459;-72
2021/12/17 04:18:29;;;;;;;10.57;7.13;;;4.80;99.90;;;;;;5093826;28;20903;-73
2021/12/17 04:20:59;;;;;;;11.57;6.43;;;4.90;99.90;;;;;;5093416;28;20448;-72
2021/12/17 04:23:26;;;;;;;9.30;6.00;;;5.00;99.90;;;;;;5093224;28;20493;-73
2021/12/17 04:25:53;;;;;;;10.40;6.43;;;4.90;99.90;;;;;;5092762;28;20447;-72
2021/12/17 04:28:21;;;;;;;10.97;7.03;;;5.00;99.90;;;;;;5092725;28;20494;-73
2021/12/17 04:30:49;;;;;;;8.30;6.10;;;5.00;99.90;;;;;;5092879;28;20448;-74
2021/12/17 04:33:16;;;;;;;10.10;6.33;;;5.10;99.90;;;;;;5092950;28;20871;-73
2021/12/17 04:35:45;;;;;;;9.57;6.30;;;5.10;99.90;;;;;;5092751;28;20452;-74
2021/12/17 04:38:14;;;;;;;11.13;6.67;;;5.20;99.90;;;;;;5092541;28;20491;-71
2021/12/17 04:40:43;;;;;;;7.13;6.20;;;5.20;99.90;;;;;;5091004;28;20512;-71
2021/12/17 04:43:36;;;;;;;9.00;6.67;;;5.30;99.90;;;;;;5092355;28;20541;-72
2021/12/17 04:46:16;;;;;;;9.67;7.17;;;5.30;99.90;;;;;;5092699;28;20539;-72
2021/12/17 04:57:23;;;;;;;7.43;5.37;;;5.20;99.90;;;;;;5092422;28;20512;-73
2021/12/17 04:59:50;;;;;;;8.97;6.27;;;5.30;99.90;;;;;;5092120;28;20520;-72
2021/12/17 05:02:18;;;;;;;7.30;5.17;;;5.30;99.90;;;;;;5092354;28;20550;-73
2021/12/17 05:04:46;;;;;;;8.10;5.60;;;5.20;99.90;;;;;;5091487;28;20456;-71
2021/12/17 05:07:14;;;;;;;7.30;6.00;;;5.30;99.90;;;;;;5092259;28;20450;-73
2021/12/17 05:09:50;;;;;;;8.13;5.97;;;5.30;99.90;;;;;;5092084;28;20502;-72
2021/12/17 05:20:34;;;;;;;10.90;7.60;;;5.30;99.90;;;;;;5091678;28;20427;-73
2021/12/17 05:23:03;;;;;;;8.60;6.27;;;5.30;99.90;;;;;;5091632;28;20594;-71
2021/12/17 05:25:30;;;;;;;9.03;6.30;;;5.30;99.90;;;;;;5091840;28;20441;-71
2021/12/17 05:28:02;;;;;;;9.23;6.43;;;5.40;99.90;;;;;;5091700;28;20517;-74
2021/12/17 05:30:29;;;;;;;9.67;6.50;;;5.50;99.90;;;;;;5091552;28;20475;-71
2021/12/17 05:32:57;;;;;;;9.63;6.07;;;5.50;99.90;;;;;;5091177;28;20484;-71
2021/12/17 05:35:26;;;;;;;9.80;6.20;;;5.60;99.90;;;;;;5091399;28;20468;-74
2021/12/17 05:37:53;;;;;;;9.80;6.67;;;5.70;99.90;;;;;;5091515;28;20457;-72
2021/12/17 05:40:22;;;;;;;8.20;5.67;;;5.70;99.90;;;;;;5091351;28;20540;-74
2021/12/17 05:42:54;;;;;;;9.03;6.73;;;5.60;99.90;;;;;;5091416;28;20514;-73
2021/12/17 05:45:32;;;;;;;8.47;6.07;;;5.60;99.90;;;;;;5091378;28;20533;-69
2021/12/17 05:48:00;;;;;;;7.87;6.03;;;5.60;99.90;;;;;;5091037;28;20480;-71
2021/12/17 05:50:27;;;;;;;10.10;5.83;;;5.60;99.90;;;;;;5091229;28;20933;-71
2021/12/17 05:52:54;;;;;;;9.20;6.70;;;5.60;99.90;;;;;;5091206;28;20949;-73
2021/12/17 05:55:23;;;;;;;8.27;5.60;;;5.60;99.90;;;;;;5089309;28;20452;-73
2021/12/17 05:57:52;;;;;;;10.80;5.90;;;5.60;99.90;;;;;;5090872;28;20445;-72
2021/12/17 06:00:20;;;;;;;8.00;4.90;;;5.70;99.90;;;;;;5089523;28;20460;-72
2021/12/17 06:02:47;;;;;;;8.57;5.90;;;5.70;99.90;;;;;;5090821;28;20449;-74
2021/12/17 06:05:16;;;;;;;7.93;5.73;;;5.70;99.90;;;;;;5091262;28;21011;-73
2021/12/17 06:07:44;;;;;;;9.60;4.63;;;5.70;99.90;;;;;;5090984;28;20502;-72
2021/12/17 06:10:14;;;;;;;7.00;5.30;;;5.70;99.90;;;;;;5090297;28;20555;-71
2021/12/17 06:12:43;;;;;;;10.33;5.17;;;5.70;99.90;;;;;;5090728;28;20493;-72
2021/12/17 06:15:12;;;;;;;7.80;5.33;;;5.70;99.90;;;;;;5091052;28;20460;-73
2021/12/17 06:17:40;;;;;;;10.00;6.03;;;5.80;99.90;;;;;;5089746;28;20916;-73
2021/12/17 06:20:09;;;;;;;6.60;4.70;;;5.90;99.90;;;;;;5090351;28;20941;-71
2021/12/17 06:22:37;;;;;;;8.03;5.53;;;5.90;99.90;;;;;;5090604;28;20457;-72
2021/12/17 06:25:05;;;;;;;8.10;5.00;;;6.00;99.90;;;;;;5090444;28;20460;-73
2021/12/17 06:27:33;;;;;;;9.70;6.17;;;6.00;99.90;;;;;;5090438;28;20455;-73
2021/12/17 06:30:02;;;;;;;7.33;5.57;;;5.80;99.90;;;;;;5090140;28;20502;-71
2021/12/17 06:32:29;;;;;;;8.70;5.50;;;5.80;99.90;;;;;;5090000;28;20595;-75
2021/12/17 06:34:57;;;;;;;9.70;6.27;;;5.80;99.90;;;;;;5090208;28;20954;-74
2021/12/17 06:37:24;;;;;;;9.80;6.40;;;5.90;99.90;;;;;;5090424;28;20456;-72
2021/12/17 06:39:51;;;;;;;7.53;5.43;;;5.80;99.90;;;;;;5089536;28;20465;-72
2021/12/17 06:42:19;;;;;;;10.03;5.93;;;5.90;99.90;;;;;;5089775;28;20937;-73
2021/12/17 06:44:47;;;;;;;7.33;5.67;;;5.90;99.90;;;;;;5090081;28;20833;-69
2021/12/17 06:47:27;;;;;;;9.90;6.40;;;5.80;99.90;;;;;;5089837;28;20453;-69
2021/12/17 06:50:00;;;;;;;6.40;4.57;;;5.90;99.90;;;;;;5088568;28;20473;-71
2021/12/17 06:55:31;;;;;;;7.53;4.27;;;5.70;99.90;;;;;;5089951;28;20930;-71
2021/12/17 07:01:06;;;;;;;6.23;3.73;;;5.70;99.90;;;;;;5069603;28;20512;-68
2021/12/17 07:06:33;;;;;;;7.37;4.50;;;5.70;99.90;;;;;;5071031;28;20510;-70
2021/12/17 07:17:25;;;;;;;8.00;4.87;;;5.40;99.90;;;;;;5069350;28;20937;-72
2021/12/17 07:22:47;;;;;;;7.40;4.67;;;5.10;99.90;;;;;;5069389;28;20476;-71
2021/12/17 07:33:37;;;;;;;7.93;5.43;;;4.90;99.90;;;;;;5075623;28;20478;-71
2021/12/17 07:36:12;;;;;;;9.70;5.87;;;4.90;99.90;;;;;;5075851;28;20459;-71
2021/12/17 07:38:43;;;;;;;7.80;5.77;;;4.90;99.90;;;;;;5075549;28;20468;-72
2021/12/17 07:41:10;;;;;;;7.33;4.70;;;5.00;99.90;;;;;;5075734;28;20937;-71
2021/12/17 07:43:39;;;;;;;7.93;5.10;;;5.00;99.90;;;;;;5074008;28;20960;-70
2021/12/17 07:46:09;;;;;;;9.70;6.07;;;4.80;99.90;;;;;;5075522;28;20452;-70
2021/12/17 07:48:38;;;;;;;8.40;6.00;;;4.80;99.90;;;;;;5075675;28;20475;-69
2021/12/17 07:51:09;;;;;;;9.63;5.60;;;4.80;99.90;;;;;;5075779;28;20457;-72
2021/12/17 07:53:36;;;;;;;8.67;6.57;;;4.90;99.90;;;;;;5075767;28;20514;-70
2021/12/17 07:56:05;;;;;;;9.40;7.20;;;5.00;99.90;;;;;;5075678;28;20518;-71
2021/12/17 07:58:33;;;;;;;8.77;6.50;;;5.00;99.90;;;;;;5075462;28;20480;-70
2021/12/17 08:01:01;;;;;;;9.37;6.90;;;5.10;99.90;;;;;;5075606;28;20937;-72
2021/12/17 08:03:28;;;;;;;10.33;6.77;;;5.10;99.90;;;;;;5075477;28;20452;-70
2021/12/17 08:05:56;;;;;;;10.43;6.57;;;5.00;99.90;;;;;;5075562;28;20451;-71
2021/12/17 08:08:24;;;;;;;12.07;7.47;;;5.00;99.90;;;;;;5075609;28;20468;-72
2021/12/17 08:10:52;;;;;;;10.83;7.67;;;5.10;99.90;;;;;;5075791;28;20449;-71
2021/12/17 08:13:23;;;;;;;10.90;7.40;;;4.90;99.90;;;;;;5075168;28;20497;-71
2021/12/17 08:16:04;;;;;;;8.90;6.93;;;4.80;99.90;;;;;;5075582;28;20545;-73
2021/12/17 08:18:50;;;;;;;11.90;7.00;;;4.80;99.90;;;;;;5075536;28;20483;-69
2021/12/17 08:26:56;;;;;;;12.83;8.53;;;4.50;99.90;;;;;;5062966;28;20447;-71
2021/12/17 08:29:42;;;;;;;12.03;8.17;;;4.60;99.90;;;;;;5073908;28;20476;-74
2021/12/17 08:32:10;;;;;;;9.90;7.47;;;4.60;99.90;;;;;;5074975;28;20576;-71
2021/12/17 08:34:37;;;;;;;9.47;7.47;;;4.70;99.90;;;;;;5074752;28;20493;-72
2021/12/17 08:37:07;;;;;;;9.77;7.40;;;4.90;99.90;;;;;;5075350;28;20453;-71
2021/12/17 08:39:35;;;;;;;9.10;7.37;;;4.90;99.90;;;;;;5072815;28;20901;-71
2021/12/17 08:42:02;;;;;;;10.03;6.60;;;5.00;99.90;;;;;;5071999;28;20527;-71
2021/12/17 08:44:30;;;;;;;9.87;7.50;;;4.90;99.90;;;;;;5071842;28;20448;-71
2021/12/17 08:46:57;;;;;;;9.00;6.90;;;4.80;99.90;;;;;;5072223;28;20453;-71
2021/12/17 08:49:25;;;;;;;8.47;6.33;;;4.90;99.90;;;;;;5072271;28;20514;-69
2021/12/17 08:51:53;;;;;;;10.43;7.10;;;5.10;99.90;;;;;;5072115;28;20456;-71
2021/12/17 08:54:21;;;;;;;8.20;6.43;;;5.20;99.90;;;;;;5070474;28;20492;-71
2021/12/17 08:56:50;;;;;;;12.30;8.07;;;5.10;99.90;;;;;;5069827;28;20977;-71
2021/12/17 08:59:18;;;;;;;11.27;8.10;;;5.10;99.90;;;;;;5083005;28;20467;-71
2021/12/17 09:01:46;;;;;;;10.70;7.00;;;5.30;99.90;;;;;;5091961;28;20451;-70
2021/12/17 09:04:13;;;;;;;8.57;6.73;;;5.30;99.90;;;;;;5092078;28;20533;-70
2021/12/17 09:06:41;;;;;;;9.30;6.53;;;5.30;99.90;;;;;;5092062;28;20527;-70
2021/12/17 09:09:08;;;;;;;9.07;6.70;;;5.20;99.90;;;;;;5091962;28;20925;-69
2021/12/17 09:11:35;;;;;;;9.60;7.47;;;5.30;99.90;;;;;;5092134;28;20777;-72
2021/12/17 09:14:05;;;;;;;9.20;7.13;;;5.30;99.90;;;;;;5091466;28;20491;-72
2021/12/17 09:16:33;;;;;;;9.63;7.60;;;5.40;99.90;;;;;;5091703;28;20964;-71
2021/12/17 09:19:00;;;;;;;11.87;8.67;;;5.50;99.90;;;;;;5091874;28;20504;-70
2021/12/17 09:21:27;;;;;;;10.40;7.90;;;5.50;99.90;;;;;;5092012;28;20500;-69
2021/12/17 09:23:54;;;;;;;9.70;7.47;;;5.30;99.90;;;;;;5091644;28;20448;-70
2021/12/17 09:26:22;;;;;;;13.10;7.43;;;5.40;99.90;;;;;;5091375;28;20528;-72
2021/12/17 09:28:50;;;;;;;11.87;7.87;;;5.50;99.90;;;;;;5091785;28;20448;-71
2021/12/17 09:31:19;;;;;;;10.50;7.73;;;5.50;99.90;;;;;;5091287;28;20501;-71
2021/12/17 09:33:49;;;;;;;10.63;8.10;;;5.50;99.90;;;;;;5091248;28;20489;-70
2021/12/17 09:36:16;;;;;;;12.07;8.77;;;5.50;99.90;;;;;;5090727;28;20538;-70
2021/12/17 09:38:46;;;;;;;11.33;8.57;;;7.30;99.90;;;;;;5090878;28;20457;-70
2021/12/17 09:41:13;;;;;;;9.47;8.30;;;5.70;99.90;;;;;;5089735;28;20460;-70
2021/12/17 09:43:41;;;;;;;11.20;8.33;;;5.70;99.90;;;;;;5091344;28;20529;-69
2021/12/17 09:46:09;;;;;;;10.20;8.20;;;5.70;99.90;;;;;;5091249;28;20529;-70
2021/12/17 09:48:38;;;;;;;14.30;9.20;;;5.70;99.90;;;;;;5090910;28;20448;-71
2021/12/17 09:51:09;;;;;;;11.00;8.97;;;5.60;99.90;;;;;;5091050;28;20462;-77
2021/12/17 09:53:36;;;;;;;11.30;8.60;;;5.50;99.90;;;;;;5091486;28;20536;-71
2021/12/17 09:56:05;;;;;;;12.20;7.13;;;5.50;99.90;;;;;;5091498;28;20444;-72
2021/12/17 09:58:33;;;;;;;13.20;9.17;;;5.50;99.90;;;;;;5090872;28;20525;-73
2021/12/17 10:01:00;;;;;;;10.10;8.63;;;5.60;99.90;;;;;;5091055;28;20460;-74
2021/12/17 10:03:28;;;;;;;10.87;7.80;;;5.60;99.90;;;;;;5091207;28;20456;-73
2021/12/17 10:05:58;;;;;;;11.83;9.00;;;5.60;99.90;;;;;;5090805;28;20509;-73
2021/12/17 10:08:25;;;;;;;10.60;7.90;;;5.70;99.90;;;;;;5091146;28;20813;-72
2021/12/17 10:10:57;;;;;;;11.53;8.80;;;5.70;99.90;;;;;;5090679;28;20456;-73
2021/12/17 10:13:25;;;;;;;12.27;9.40;;;5.70;99.90;;;;;;5090296;28;20491;-72
2021/12/17 10:15:55;;;;;;;11.77;8.63;;;5.70;99.90;;;;;;5090686;28;20453;-72
2021/12/17 10:18:33;;;;;;;13.57;10.13;;;5.70;99.90;;;;;;5090813;28;20568;-71
2021/12/17 10:21:04;;;;;;;12.00;8.50;;;5.70;99.90;;;;;;5090534;28;20452;-71
2021/12/17 10:23:33;;;;;;;12.57;9.10;;;5.90;99.90;;;;;;5090700;27;20480;-72
2021/12/17 10:26:00;;;;;;;11.67;9.47;;;5.80;99.90;;;;;;5090530;28;20520;-72
2021/12/17 10:28:29;;;;;;;12.43;8.30;;;5.80;99.90;;;;;;5090438;28;20532;-71
2021/12/17 10:30:58;;;;;;;13.47;8.50;;;5.80;99.90;;;;;;5090267;28;20513;-73
2021/12/17 10:33:29;;;;;;;8.60;6.20;;;5.90;99.90;;;;;;5090213;28;20809;-71
2021/12/17 10:36:00;;;;;;;9.00;6.80;;;5.90;99.90;;;;;;5090229;28;20501;-71
2021/12/17 10:38:29;;;;;;;7.60;5.80;;;5.90;99.90;;;;;;5090290;28;20494;-72
2021/12/17 10:41:02;;;;;;;9.20;6.73;;;5.80;99.90;;;;;;5089803;28;20460;-71
2021/12/17 10:43:34;;;;;;;9.90;7.67;;;5.90;99.90;;;;;;5088834;28;20958;-72
2021/12/17 10:46:08;;;;;;;9.57;7.53;;;6.00;99.90;;;;;;5090148;28;20494;-73
2021/12/17 10:48:49;;;;;;;7.87;6.60;;;6.00;99.90;;;;;;5089851;28;20469;-71
2021/12/17 10:54:10;;;;;;;8.00;6.00;;;6.10;99.90;;;;;;5087787;28;20944;-71
2021/12/17 10:56:40;;;;;;;7.87;6.03;;;6.00;99.90;;;;;;5089806;28;20941;-72
2021/12/17 10:59:10;;;;;;;7.83;6.10;;;6.00;99.90;;;;;;5089659;28;20476;-72
2021/12/17 11:01:42;;;;;;;8.27;6.20;;;6.00;99.90;;;;;;5090072;28;20456;-70
2021/12/17 11:04:16;;;;;;;8.33;6.47;;;6.00;99.90;;;;;;5089291;28;20460;-70
2021/12/17 11:06:49;;;;;;;7.83;7.00;;;6.10;99.90;;;;;;5089542;28;20445;-72
2021/12/17 11:09:37;;;;;;;8.90;6.57;;;6.10;99.90;;;;;;5089900;28;20933;-73
2021/12/17 11:12:20;;;;;;;10.17;7.17;;;6.10;99.90;;;;;;5089843;28;20468;-73
2021/12/17 11:14:48;;;;;;;9.93;6.73;;;6.10;99.90;;;;;;5089556;28;20579;-72
2021/12/17 11:17:17;;;;;;;9.50;6.87;;;6.10;99.90;;;;;;5089658;28;20453;-73
2021/12/17 11:19:45;;;;;;;8.13;6.17;;;6.10;99.90;;;;;;5089549;28;20487;-72
2021/12/17 11:22:12;;;;;;;8.80;6.90;;;6.00;99.90;;;;;;5089630;28;20818;-71
2021/12/17 11:24:41;;;;;;;8.57;6.87;;;5.90;99.90;;;;;;5089772;28;20459;-72
2021/12/17 11:27:09;;;;;;;9.00;7.17;;;6.00;99.90;;;;;;5089568;28;20448;-72
2021/12/17 11:29:36;;;;;;;8.90;6.90;;;5.90;99.90;;;;;;5089025;28;20541;-72
2021/12/17 11:32:05;;;;;;;7.80;6.80;;;6.30;99.90;;;;;;5089601;28;20937;-72
2021/12/17 11:34:34;;;;;;;8.47;6.20;;;6.30;99.90;;;;;;5089584;28;20496;-73
2021/12/17 11:37:04;;;;;;;10.47;5.63;;;6.50;99.90;;;;;;5089460;28;20463;-72
2021/12/17 11:39:33;;;;;;;8.43;6.17;;;6.50;99.90;;;;;;5089519;28;20477;-73
2021/12/17 11:42:19;;;;;;;8.40;6.57;;;6.40;99.90;;;;;;5089412;28;20848;-72
2021/12/17 11:45:22;;;;;;;5.93;4.10;;;6.40;99.90;;;;;;5089365;28;20448;-72
2021/12/17 11:47:36;;;;;;;8.93;5.60;;;6.30;99.90;;;;;;5089149;28;20454;-72
2021/12/17 11:50:06;;;;;;;7.43;4.97;;;6.20;99.90;;;;;;5088864;28;21003;-74
2021/12/17 11:52:45;;;;;;;7.97;5.57;;;6.10;99.90;;;;;;5088989;28;20456;-72
2021/12/17 11:55:26;;;;;;;7.37;4.60;;;6.20;99.90;;;;;;5089446;28;20489;-72
2021/12/17 11:57:57;;;;;;;7.73;5.10;;;6.30;99.90;;;;;;5089155;28;20946;-72
2021/12/17 12:00:26;;;;;;;6.70;5.30;;;6.20;99.90;;;;;;5089454;28;20451;-71
2021/12/17 12:02:54;;;;;;;5.43;4.33;;;6.20;99.90;;;;;;5089094;28;20945;-73
2021/12/17 12:05:41;;;;;;;8.13;5.23;;;6.10;99.90;;;;;;5088812;28;20436;-73
2021/12/17 12:08:31;;;;;;;6.20;4.00;;;6.00;99.90;;;;;;5088716;28;20462;-72
2021/12/17 12:11:10;;;;;;;6.10;4.17;;;5.80;99.90;;;;;;5088754;28;20513;-73
2021/12/17 12:13:44;;;;;;;8.07;4.87;;;5.70;99.90;;;;;;5088706;28;20471;-72
2021/12/17 12:16:16;;;;;;;5.87;4.17;;;5.70;99.90;;;;;;5092243;28;20551;-72
2021/12/17 12:18:49;;;;;;;7.50;4.50;;;5.60;99.90;;;;;;5093058;28;20537;-71
2021/12/17 12:21:17;;;;;;;7.37;4.10;;;5.50;99.90;;;;;;5092668;28;20829;-72
2021/12/17 12:24:11;;;;;;;6.50;3.90;;;5.60;99.90;;;;;;5092539;28;20903;-71
2021/12/17 12:26:41;;;;;;;7.73;4.87;;;5.50;99.90;;;;;;5092725;28;20455;-72
2021/12/17 12:29:12;;;;;;;6.30;4.40;;;5.50;99.90;;;;;;5093000;28;20582;-71
2021/12/17 12:32:16;;;;;;;7.50;4.80;;;5.40;99.90;;;;;;5092990;28;20448;-71
2021/12/17 12:34:44;;;;;;;8.10;5.40;;;5.40;99.90;;;;;;5092515;28;20497;-71
2021/12/17 12:37:29;;;;;;;8.37;5.87;;;5.40;99.90;;;;;;5092639;28;20457;-71
2021/12/17 12:40:18;;;;;;;8.47;5.33;;;5.40;99.90;;;;;;5092263;28;20578;-72
2021/12/17 12:42:56;;;;;;;8.20;5.63;;;5.40;99.90;;;;;;5092366;28;20544;-72
2021/12/17 12:45:25;;;;;;;8.33;5.87;;;5.50;99.90;;;;;;5092403;28;20843;-71
2021/12/17 12:48:00;;;;;;;8.00;5.53;;;5.50;99.90;;;;;;5092320;28;20456;-72
2021/12/17 12:50:30;;;;;;;7.00;4.00;;;5.40;99.90;;;;;;5092337;28;20516;-71
2021/12/17 12:52:59;;;;;;;6.40;3.87;;;5.40;99.90;;;;;;5092322;28;20459;-73
2021/12/17 12:55:30;;;;;;;5.30;3.30;;;5.40;99.90;;;;;;5092049;28;20495;-72
2021/12/17 12:58:06;;;;;;;8.60;3.90;;;5.40;99.90;;;;;;5091586;28;20886;-75
2021/12/17 13:00:37;;;;;;;6.40;3.90;;;5.40;99.90;;;;;;5092470;28;20460;-73
2021/12/17 13:03:07;;;;;;;7.60;3.90;;;5.50;99.90;;;;;;5092201;28;20448;-71
2021/12/17 13:05:37;;;;;;;7.20;3.40;;;5.50;99.90;;;;;;5091753;28;20459;-72
2021/12/17 13:08:07;;;;;;;6.70;3.53;;;5.50;99.90;;;;;;5090821;28;20562;-71
2021/12/17 13:10:36;;;;;;;6.40;4.00;;;5.50;99.90;;;;;;5092343;28;20452;-71
2021/12/17 13:13:14;;;;;;;5.10;2.83;;;5.60;99.90;;;;;;5091637;28;20488;-72
2021/12/17 13:15:50;;;;;;;5.40;3.60;;;5.50;99.90;;;;;;5091870;28;20499;-71
2021/12/17 13:23:51;;;;;;;6.00;3.67;;;5.50;99.90;;;;;;5082343;28;20428;-72
2021/12/17 13:26:20;;;;;;;4.90;3.17;;;5.60;99.90;;;;;;5090978;28;20538;-71
2021/12/17 13:28:50;;;;;;;5.77;3.60;;;5.40;99.90;;;;;;5091582;28;20471;-72
2021/12/17 13:31:48;;;;;;;11.13;6.30;;;5.40;99.90;;;;;;5091914;28;20440;-72
2021/12/17 13:34:23;;;;;;;5.73;3.60;;;5.50;99.90;;;;;;5067407;28;20480;-72
2021/12/17 13:36:54;;;;;;;5.53;4.40;;;5.40;99.90;;;;;;5091675;28;20447;-72
2021/12/17 13:39:23;;;;;;;6.40;3.60;;;5.30;99.90;;;;;;5091348;28;20474;-71
2021/12/17 13:41:51;;;;;;;5.87;3.93;;;5.40;99.90;;;;;;5091037;28;20455;-72
2021/12/17 13:44:34;;;;;;;7.90;3.53;;;5.40;99.90;;;;;;5091341;28;20452;-72
2021/12/17 13:47:28;;;;;;;5.50;4.03;;;5.30;99.90;;;;;;5091611;28;20820;-71
2021/12/17 13:50:01;;;;;;;5.60;3.70;;;5.30;99.90;;;;;;5091079;28;20475;-71
2021/12/17 13:52:29;;;;;;;6.37;3.63;;;5.30;99.90;;;;;;5091596;28;20906;-72
2021/12/17 13:54:59;;;;;;;7.90;5.43;;;5.30;99.90;;;;;;5091145;28;20541;-72
2021/12/17 13:57:28;;;;;;;5.30;3.80;;;5.20;99.90;;;;;;5090830;28;20452;-71
2021/12/17 14:00:07;;;;;;;7.43;4.60;;;5.10;99.90;;;;;;5090558;28;20537;-73
2021/12/17 14:02:38;;;;;;;6.33;4.30;;;5.20;99.90;;;;;;5089788;28;20517;-70
2021/12/17 14:05:08;;;;;;;10.83;6.73;;;5.30;99.90;;;;;;5091022;28;20536;-71
2021/12/17 14:07:37;;;;;;;8.00;4.97;;;5.40;99.90;;;;;;5090985;28;20546;-71
2021/12/17 14:10:08;;;;;;;7.63;4.70;;;5.30;99.90;;;;;;5090738;28;20476;-72
2021/12/17 14:12:39;;;;;;;6.10;3.60;;;5.20;99.90;;;;;;5090234;28;20609;-72
2021/12/17 14:15:10;;;;;;;7.30;5.13;;;5.20;99.90;;;;;;5090763;28;20523;-71
2021/12/17 14:17:40;;;;;;;5.67;3.50;;;5.20;99.90;;;;;;5090728;28;20482;-72
2021/12/17 14:20:11;;;;;;;6.97;3.60;;;5.20;99.90;;;;;;5091462;28;20966;-72
2021/12/17 14:22:40;;;;;;;6.67;4.23;;;5.20;99.90;;;;;;5090801;28;20459;-72
2021/12/17 14:25:29;;;;;;;8.77;4.67;;;5.20;99.90;;;;;;5090730;28;20456;-72
2021/12/17 14:27:58;;;;;;;5.20;3.50;;;5.20;99.90;;;;;;5090503;28;20498;-73
2021/12/17 14:30:28;;;;;;;6.30;4.43;;;5.10;99.90;;;;;;5090289;28;20472;-72
2021/12/17 14:32:57;;;;;;;5.53;3.47;;;5.10;99.90;;;;;;5090501;28;20465;-71
2021/12/17 14:35:47;;;;;;;6.70;5.07;;;5.10;99.90;;;;;;5090408;28;20877;-72
2021/12/17 14:38:15;;;;;;;8.00;4.90;;;5.00;99.90;;;;;;5089647;28;20480;-72
2021/12/17 14:40:47;;;;;;;7.97;4.80;;;5.10;99.90;;;;;;5090336;28;20770;-72
2021/12/17 14:43:26;;;;;;;14.03;10.37;;;5.00;99.90;;;;;;5090303;28;20631;-72
2021/12/17 14:46:01;;;;;;;6.50;4.17;;;4.90;99.90;;;;;;5089937;28;20482;-72
2021/12/17 15:05:01;;;;;;;5.40;3.57;;;4.60;99.90;;;;;;5090110;28;20439;-71
2021/12/17 15:07:28;;;;;;;8.23;4.60;;;4.60;99.90;;;;;;5090389;28;20458;-71
2021/12/17 15:09:55;;;;;;;9.33;5.50;;;4.60;99.90;;;;;;5089389;28;20877;-71
2021/12/17 15:12:37;;;;;;;7.97;5.37;;;4.60;99.90;;;;;;5089636;28;20486;-72
2021/12/17 15:15:11;;;;;;;9.63;5.60;;;4.50;99.90;;;;;;5089589;28;20490;-72
2021/12/17 15:17:39;;;;;;;8.40;6.00;;;4.60;99.90;;;;;;5089784;28;20488;-72
2021/12/17 15:20:10;;;;;;;8.33;5.40;;;4.70;99.90;;;;;;5090025;28;20474;-72
2021/12/17 15:22:38;;;;;;;8.50;5.70;;;4.70;99.90;;;;;;5089885;28;20525;-72
2021/12/17 15:25:08;;;;;;;10.50;7.00;;;4.80;99.90;;;;;;5089570;28;20449;-72
2021/12/17 15:27:35;;;;;;;8.27;6.30;;;4.60;99.90;;;;;;5089778;28;20988;-71
2021/12/17 15:30:04;;;;;;;9.23;5.67;;;4.60;99.90;;;;;;5089503;28;20534;-71
2021/12/17 15:32:31;;;;;;;10.17;7.00;;;4.50;99.90;;;;;;5089695;28;20454;-71
2021/12/17 15:34:59;;;;;;;9.27;6.17;;;4.60;99.90;;;;;;5089597;28;21017;-71
2021/12/17 15:37:27;;;;;;;10.73;7.53;;;4.60;99.90;;;;;;5089782;28;20452;-72
2021/12/17 15:39:54;;;;;;;8.70;6.00;;;4.70;99.90;;;;;;5089403;28;20479;-72
2021/12/17 15:42:22;;;;;;;8.13;6.13;;;4.60;99.90;;;;;;5089656;28;20911;-71
2021/12/17 15:44:49;;;;;;;8.87;6.37;;;4.60;99.90;;;;;;5089723;28;20523;-72
2021/12/17 15:47:16;;;;;;;8.70;6.13;;;4.50;99.90;;;;;;5089599;28;20455;-72